Terminal Aerodrome Forecast
Issued by NWS Charleston, SC

Home | Current Version | Previous Version | Text Only | Print | Product List | Glossary On
Versions: 1 2 3 4 5 6 7 8 9 10 11 12 13
000
FTUS42 KCHS 051135
TAFSAV
TAF
KSAV 051135Z 0512/0612 VRB04KT P6SM SCT250
     FM051400 06011KT P6SM SCT040
     FM051700 10015G21KT P6SM SCT060
     FM060200 VRB04KT P6SM SCT020 BKN250=

USA.gov is the U.S. government's official web portal to all federal, state and local government web resources and services.